sensor_id;sensor_type;location;lat;lon;timestamp;P1;durP1;ratioP1;P2;durP2;ratioP2
21727;SDS011;11026;50.560;17.852;2022-11-20T00:01:32;118.70;;;61.03;;
21727;SDS011;11026;50.560;17.852;2022-11-20T00:03:59;116.57;;;58.17;;
21727;SDS011;11026;50.560;17.852;2022-11-20T00:06:27;123.82;;;61.88;;
21727;SDS011;11026;50.560;17.852;2022-11-20T00:08:55;130.00;;;65.93;;
21727;SDS011;11026;50.560;17.852;2022-11-20T00:11:24;132.70;;;72.07;;
21727;SDS011;11026;50.560;17.852;2022-11-20T00:13:54;121.13;;;59.40;;
21727;SDS011;11026;50.560;17.852;2022-11-20T00:16:26;122.72;;;61.63;;
21727;SDS011;11026;50.560;17.852;2022-11-20T00:18:54;124.80;;;60.95;;
21727;SDS011;11026;50.560;17.852;2022-11-20T00:21:23;122.97;;;62.03;;
21727;SDS011;11026;50.560;17.852;2022-11-20T00:23:53;128.93;;;62.00;;
21727;SDS011;11026;50.560;17.852;2022-11-20T00:26:24;127.18;;;63.50;;
21727;SDS011;11026;50.560;17.852;2022-11-20T00:28:54;124.22;;;61.25;;
21727;SDS011;11026;50.560;17.852;2022-11-20T00:31:23;123.65;;;59.78;;
21727;SDS011;11026;50.560;17.852;2022-11-20T00:33:51;132.93;;;64.10;;
21727;SDS011;11026;50.560;17.852;2022-11-20T00:36:20;122.70;;;61.00;;
21727;SDS011;11026;50.560;17.852;2022-11-20T00:39:02;117.72;;;60.83;;
21727;SDS011;11026;50.560;17.852;2022-11-20T00:41:30;120.25;;;59.35;;
21727;SDS011;11026;50.560;17.852;2022-11-20T00:43:57;122.78;;;62.63;;
21727;SDS011;11026;50.560;17.852;2022-11-20T00:46:25;128.25;;;60.97;;
21727;SDS011;11026;50.560;17.852;2022-11-20T00:49:01;115.88;;;60.53;;
21727;SDS011;11026;50.560;17.852;2022-11-20T00:51:28;123.57;;;59.53;;
21727;SDS011;11026;50.560;17.852;2022-11-20T00:53:56;116.45;;;57.65;;
21727;SDS011;11026;50.560;17.852;2022-11-20T00:56:25;115.68;;;59.03;;
21727;SDS011;11026;50.560;17.852;2022-11-20T00:58:53;114.65;;;58.58;;
21727;SDS011;11026;50.560;17.852;2022-11-20T01:01:23;108.53;;;57.95;;
21727;SDS011;11026;50.560;17.852;2022-11-20T01:03:53;119.25;;;60.05;;
21727;SDS011;11026;50.560;17.852;2022-11-20T01:06:26;121.03;;;59.70;;
21727;SDS011;11026;50.560;17.852;2022-11-20T01:08:56;116.45;;;58.55;;
21727;SDS011;11026;50.560;17.852;2022-11-20T01:11:29;118.20;;;59.03;;
21727;SDS011;11026;50.560;17.852;2022-11-20T01:13:58;123.95;;;59.88;;
21727;SDS011;11026;50.560;17.852;2022-11-20T01:16:28;113.50;;;56.75;;
21727;SDS011;11026;50.560;17.852;2022-11-20T01:18:58;114.40;;;58.40;;
21727;SDS011;11026;50.560;17.852;2022-11-20T01:21:28;113.20;;;58.22;;
21727;SDS011;11026;50.560;17.852;2022-11-20T01:23:59;112.60;;;58.00;;
21727;SDS011;11026;50.560;17.852;2022-11-20T01:26:34;121.70;;;61.25;;
21727;SDS011;11026;50.560;17.852;2022-11-20T01:29:04;122.07;;;62.28;;
21727;SDS011;11026;50.560;17.852;2022-11-20T01:31:33;119.70;;;61.72;;
21727;SDS011;11026;50.560;17.852;2022-11-20T01:34:03;129.18;;;64.22;;
21727;SDS011;11026;50.560;17.852;2022-11-20T01:36:33;117.00;;;59.28;;
21727;SDS011;11026;50.560;17.852;2022-11-20T01:39:05;114.72;;;57.45;;
21727;SDS011;11026;50.560;17.852;2022-11-20T01:41:34;119.55;;;57.70;;
21727;SDS011;11026;50.560;17.852;2022-11-20T01:47:39;119.70;;;58.60;;
21727;SDS011;11026;50.560;17.852;2022-11-20T01:50:14;115.28;;;54.85;;
21727;SDS011;11026;50.560;17.852;2022-11-20T01:52:55;120.38;;;58.85;;
21727;SDS011;11026;50.560;17.852;2022-11-20T01:55:39;118.00;;;57.80;;
21727;SDS011;11026;50.560;17.852;2022-11-20T01:58:14;115.85;;;57.50;;
21727;SDS011;11026;50.560;17.852;2022-11-20T02:00:45;124.43;;;61.03;;
21727;SDS011;11026;50.560;17.852;2022-11-20T02:03:20;119.15;;;59.65;;
21727;SDS011;11026;50.560;17.852;2022-11-20T02:08:32;141.20;;;64.47;;
21727;SDS011;11026;50.560;17.852;2022-11-20T02:11:02;215.20;;;90.00;;
21727;SDS011;11026;50.560;17.852;2022-11-20T02:13:31;176.68;;;78.55;;
21727;SDS011;11026;50.560;17.852;2022-11-20T02:16:18;186.07;;;79.65;;
21727;SDS011;11026;50.560;17.852;2022-11-20T02:18:56;200.95;;;85.57;;
21727;SDS011;11026;50.560;17.852;2022-11-20T02:24:31;157.75;;;71.25;;
21727;SDS011;11026;50.560;17.852;2022-11-20T02:27:02;152.70;;;68.28;;
21727;SDS011;11026;50.560;17.852;2022-11-20T02:29:35;143.52;;;66.10;;
21727;SDS011;11026;50.560;17.852;2022-11-20T02:32:16;135.35;;;65.35;;
21727;SDS011;11026;50.560;17.852;2022-11-20T02:34:47;129.77;;;64.03;;
21727;SDS011;11026;50.560;17.852;2022-11-20T02:37:15;123.45;;;61.85;;
21727;SDS011;11026;50.560;17.852;2022-11-20T02:39:50;131.82;;;65.72;;
21727;SDS011;11026;50.560;17.852;2022-11-20T02:42:18;128.55;;;62.65;;
21727;SDS011;11026;50.560;17.852;2022-11-20T02:44:46;130.68;;;64.95;;
21727;SDS011;11026;50.560;17.852;2022-11-20T02:47:13;136.38;;;67.38;;
21727;SDS011;11026;50.560;17.852;2022-11-20T02:49:41;132.05;;;62.17;;
21727;SDS011;11026;50.560;17.852;2022-11-20T02:52:08;126.90;;;59.28;;
21727;SDS011;11026;50.560;17.852;2022-11-20T02:54:36;122.78;;;58.53;;
21727;SDS011;11026;50.560;17.852;2022-11-20T02:57:03;117.43;;;61.15;;
21727;SDS011;11026;50.560;17.852;2022-11-20T02:59:32;127.03;;;62.10;;
21727;SDS011;11026;50.560;17.852;2022-11-20T03:02:01;132.35;;;63.17;;
21727;SDS011;11026;50.560;17.852;2022-11-20T03:04:30;131.73;;;64.00;;
21727;SDS011;11026;50.560;17.852;2022-11-20T03:06:58;124.95;;;62.22;;
21727;SDS011;11026;50.560;17.852;2022-11-20T03:09:25;138.35;;;67.07;;
21727;SDS011;11026;50.560;17.852;2022-11-20T03:11:52;141.75;;;69.25;;
21727;SDS011;11026;50.560;17.852;2022-11-20T03:14:19;158.05;;;74.72;;
21727;SDS011;11026;50.560;17.852;2022-11-20T03:16:47;127.93;;;61.90;;
21727;SDS011;11026;50.560;17.852;2022-11-20T03:19:14;127.40;;;61.55;;
21727;SDS011;11026;50.560;17.852;2022-11-20T03:21:42;132.40;;;61.95;;
21727;SDS011;11026;50.560;17.852;2022-11-20T03:24:09;126.18;;;63.72;;
21727;SDS011;11026;50.560;17.852;2022-11-20T03:26:37;146.55;;;77.53;;
21727;SDS011;11026;50.560;17.852;2022-11-20T03:29:06;130.48;;;62.28;;
21727;SDS011;11026;50.560;17.852;2022-11-20T03:31:35;150.88;;;74.53;;
21727;SDS011;11026;50.560;17.852;2022-11-20T03:34:05;129.02;;;65.05;;
21727;SDS011;11026;50.560;17.852;2022-11-20T03:36:33;130.07;;;65.32;;
21727;SDS011;11026;50.560;17.852;2022-11-20T03:39:02;132.10;;;64.25;;
21727;SDS011;11026;50.560;17.852;2022-11-20T03:41:30;136.00;;;67.20;;
21727;SDS011;11026;50.560;17.852;2022-11-20T03:46:30;136.02;;;66.35;;
21727;SDS011;11026;50.560;17.852;2022-11-20T03:48:58;126.40;;;61.13;;
21727;SDS011;11026;50.560;17.852;2022-11-20T03:51:28;128.70;;;61.85;;
21727;SDS011;11026;50.560;17.852;2022-11-20T03:53:58;138.35;;;63.97;;
21727;SDS011;11026;50.560;17.852;2022-11-20T03:56:28;128.50;;;61.25;;
21727;SDS011;11026;50.560;17.852;2022-11-20T03:58:58;128.93;;;61.83;;
21727;SDS011;11026;50.560;17.852;2022-11-20T04:01:30;128.57;;;61.42;;
21727;SDS011;11026;50.560;17.852;2022-11-20T04:03:59;118.72;;;61.15;;
21727;SDS011;11026;50.560;17.852;2022-11-20T04:06:28;124.35;;;61.25;;
21727;SDS011;11026;50.560;17.852;2022-11-20T04:08:58;121.38;;;62.63;;
21727;SDS011;11026;50.560;17.852;2022-11-20T04:11:26;121.05;;;59.75;;
21727;SDS011;11026;50.560;17.852;2022-11-20T04:13:57;123.90;;;60.85;;
21727;SDS011;11026;50.560;17.852;2022-11-20T04:16:29;119.15;;;60.33;;
21727;SDS011;11026;50.560;17.852;2022-11-20T04:18:59;121.82;;;60.60;;
21727;SDS011;11026;50.560;17.852;2022-11-20T04:21:27;123.85;;;61.63;;
21727;SDS011;11026;50.560;17.852;2022-11-20T04:23:55;119.53;;;60.50;;
21727;SDS011;11026;50.560;17.852;2022-11-20T04:26:24;120.20;;;59.75;;
21727;SDS011;11026;50.560;17.852;2022-11-20T04:28:54;117.90;;;58.25;;
21727;SDS011;11026;50.560;17.852;2022-11-20T04:31:23;122.05;;;60.08;;
21727;SDS011;11026;50.560;17.852;2022-11-20T04:33:53;136.65;;;66.10;;
21727;SDS011;11026;50.560;17.852;2022-11-20T04:36:22;126.18;;;62.85;;
21727;SDS011;11026;50.560;17.852;2022-11-20T04:38:51;124.00;;;61.60;;
21727;SDS011;11026;50.560;17.852;2022-11-20T04:41:23;124.15;;;60.53;;
21727;SDS011;11026;50.560;17.852;2022-11-20T04:43:55;128.20;;;66.63;;
21727;SDS011;11026;50.560;17.852;2022-11-20T04:46:27;127.55;;;62.42;;
21727;SDS011;11026;50.560;17.852;2022-11-20T04:48:58;136.73;;;62.75;;
21727;SDS011;11026;50.560;17.852;2022-11-20T04:51:26;125.50;;;61.58;;
21727;SDS011;11026;50.560;17.852;2022-11-20T04:53:54;127.78;;;63.40;;
21727;SDS011;11026;50.560;17.852;2022-11-20T04:56:22;127.20;;;62.42;;
21727;SDS011;11026;50.560;17.852;2022-11-20T04:58:50;118.82;;;61.13;;
21727;SDS011;11026;50.560;17.852;2022-11-20T05:01:19;129.63;;;63.08;;
21727;SDS011;11026;50.560;17.852;2022-11-20T05:03:51;132.18;;;61.53;;
21727;SDS011;11026;50.560;17.852;2022-11-20T05:06:19;113.20;;;57.40;;
21727;SDS011;11026;50.560;17.852;2022-11-20T05:08:49;119.88;;;57.63;;
21727;SDS011;11026;50.560;17.852;2022-11-20T05:11:17;124.60;;;59.40;;
21727;SDS011;11026;50.560;17.852;2022-11-20T05:13:47;121.35;;;60.55;;
21727;SDS011;11026;50.560;17.852;2022-11-20T05:16:22;125.22;;;61.78;;
21727;SDS011;11026;50.560;17.852;2022-11-20T05:18:52;128.40;;;63.50;;
21727;SDS011;11026;50.560;17.852;2022-11-20T05:21:23;124.50;;;63.10;;
21727;SDS011;11026;50.560;17.852;2022-11-20T05:23:51;134.38;;;65.32;;
21727;SDS011;11026;50.560;17.852;2022-11-20T05:26:20;129.68;;;63.33;;
21727;SDS011;11026;50.560;17.852;2022-11-20T05:28:48;138.40;;;67.03;;
21727;SDS011;11026;50.560;17.852;2022-11-20T05:31:21;131.82;;;63.50;;
21727;SDS011;11026;50.560;17.852;2022-11-20T05:33:56;126.65;;;63.53;;
21727;SDS011;11026;50.560;17.852;2022-11-20T05:36:23;127.90;;;62.60;;
21727;SDS011;11026;50.560;17.852;2022-11-20T05:38:51;123.28;;;61.65;;
21727;SDS011;11026;50.560;17.852;2022-11-20T05:41:25;125.20;;;61.70;;
21727;SDS011;11026;50.560;17.852;2022-11-20T05:43:53;138.30;;;66.97;;
21727;SDS011;11026;50.560;17.852;2022-11-20T05:46:20;126.28;;;63.38;;
21727;SDS011;11026;50.560;17.852;2022-11-20T05:48:55;136.98;;;66.30;;
21727;SDS011;11026;50.560;17.852;2022-11-20T05:51:24;134.38;;;63.70;;
21727;SDS011;11026;50.560;17.852;2022-11-20T05:53:53;133.07;;;63.00;;
21727;SDS011;11026;50.560;17.852;2022-11-20T05:56:22;128.27;;;64.78;;
21727;SDS011;11026;50.560;17.852;2022-11-20T05:58:50;125.85;;;62.20;;
21727;SDS011;11026;50.560;17.852;2022-11-20T06:01:18;120.63;;;61.28;;
21727;SDS011;11026;50.560;17.852;2022-11-20T06:03:48;125.70;;;60.85;;
21727;SDS011;11026;50.560;17.852;2022-11-20T06:06:18;123.60;;;59.88;;
21727;SDS011;11026;50.560;17.852;2022-11-20T06:08:53;125.65;;;60.90;;
21727;SDS011;11026;50.560;17.852;2022-11-20T06:11:21;129.15;;;64.32;;
21727;SDS011;11026;50.560;17.852;2022-11-20T06:13:48;128.75;;;60.90;;
21727;SDS011;11026;50.560;17.852;2022-11-20T06:16:17;129.95;;;65.97;;
21727;SDS011;11026;50.560;17.852;2022-11-20T06:18:47;126.70;;;60.63;;
21727;SDS011;11026;50.560;17.852;2022-11-20T06:21:19;126.95;;;57.90;;
21727;SDS011;11026;50.560;17.852;2022-11-20T06:23:48;124.95;;;60.60;;
21727;SDS011;11026;50.560;17.852;2022-11-20T06:26:19;129.65;;;62.22;;
21727;SDS011;11026;50.560;17.852;2022-11-20T06:28:50;121.50;;;62.13;;
21727;SDS011;11026;50.560;17.852;2022-11-20T06:31:19;128.32;;;61.22;;
21727;SDS011;11026;50.560;17.852;2022-11-20T06:33:48;132.43;;;64.38;;
21727;SDS011;11026;50.560;17.852;2022-11-20T06:36:19;134.10;;;65.78;;
21727;SDS011;11026;50.560;17.852;2022-11-20T06:38:48;136.93;;;67.30;;
21727;SDS011;11026;50.560;17.852;2022-11-20T06:41:17;125.80;;;62.47;;
21727;SDS011;11026;50.560;17.852;2022-11-20T06:43:46;128.43;;;66.03;;
21727;SDS011;11026;50.560;17.852;2022-11-20T06:46:15;144.63;;;69.47;;
21727;SDS011;11026;50.560;17.852;2022-11-20T06:48:48;139.98;;;68.07;;
21727;SDS011;11026;50.560;17.852;2022-11-20T06:51:18;132.15;;;66.63;;
21727;SDS011;11026;50.560;17.852;2022-11-20T06:53:46;143.45;;;70.55;;
21727;SDS011;11026;50.560;17.852;2022-11-20T06:56:13;131.27;;;63.83;;
21727;SDS011;11026;50.560;17.852;2022-11-20T06:58:47;131.98;;;65.90;;
21727;SDS011;11026;50.560;17.852;2022-11-20T07:01:14;147.98;;;72.75;;
21727;SDS011;11026;50.560;17.852;2022-11-20T07:03:42;139.30;;;69.75;;
21727;SDS011;11026;50.560;17.852;2022-11-20T07:06:13;145.95;;;71.85;;
21727;SDS011;11026;50.560;17.852;2022-11-20T07:08:41;185.90;;;89.38;;
21727;SDS011;11026;50.560;17.852;2022-11-20T07:11:11;178.13;;;90.85;;
21727;SDS011;11026;50.560;17.852;2022-11-20T07:13:39;180.77;;;91.68;;
21727;SDS011;11026;50.560;17.852;2022-11-20T07:16:07;183.02;;;98.30;;
21727;SDS011;11026;50.560;17.852;2022-11-20T07:18:35;209.27;;;113.93;;
21727;SDS011;11026;50.560;17.852;2022-11-20T07:21:04;248.32;;;129.13;;
21727;SDS011;11026;50.560;17.852;2022-11-20T07:23:34;387.83;;;191.32;;
21727;SDS011;11026;50.560;17.852;2022-11-20T07:26:05;485.92;;;227.25;;
21727;SDS011;11026;50.560;17.852;2022-11-20T07:28:34;367.67;;;166.27;;
21727;SDS011;11026;50.560;17.852;2022-11-20T07:31:08;290.20;;;132.43;;
21727;SDS011;11026;50.560;17.852;2022-11-20T07:33:42;167.93;;;81.07;;
21727;SDS011;11026;50.560;17.852;2022-11-20T07:36:10;165.82;;;83.72;;
21727;SDS011;11026;50.560;17.852;2022-11-20T07:38:37;165.57;;;85.35;;
21727;SDS011;11026;50.560;17.852;2022-11-20T07:41:05;178.23;;;87.80;;
21727;SDS011;11026;50.560;17.852;2022-11-20T07:43:33;208.25;;;102.65;;
21727;SDS011;11026;50.560;17.852;2022-11-20T07:46:06;186.95;;;94.70;;
21727;SDS011;11026;50.560;17.852;2022-11-20T07:48:35;174.95;;;90.30;;
21727;SDS011;11026;50.560;17.852;2022-11-20T07:51:02;164.60;;;83.53;;
21727;SDS011;11026;50.560;17.852;2022-11-20T07:53:30;157.70;;;82.03;;
21727;SDS011;11026;50.560;17.852;2022-11-20T07:56:00;167.60;;;82.82;;
21727;SDS011;11026;50.560;17.852;2022-11-20T07:58:29;161.65;;;83.53;;
21727;SDS011;11026;50.560;17.852;2022-11-20T08:01:06;163.32;;;82.55;;
21727;SDS011;11026;50.560;17.852;2022-11-20T08:03:35;156.20;;;75.93;;
21727;SDS011;11026;50.560;17.852;2022-11-20T08:06:06;146.00;;;76.07;;
21727;SDS011;11026;50.560;17.852;2022-11-20T08:08:34;146.02;;;71.53;;
21727;SDS011;11026;50.560;17.852;2022-11-20T08:11:08;142.32;;;74.90;;
21727;SDS011;11026;50.560;17.852;2022-11-20T08:13:54;136.45;;;72.65;;
21727;SDS011;11026;50.560;17.852;2022-11-20T08:16:41;137.55;;;70.10;;
21727;SDS011;11026;50.560;17.852;2022-11-20T08:19:11;135.40;;;67.28;;
21727;SDS011;11026;50.560;17.852;2022-11-20T08:21:39;130.70;;;64.68;;
21727;SDS011;11026;50.560;17.852;2022-11-20T08:24:07;128.10;;;64.07;;
21727;SDS011;11026;50.560;17.852;2022-11-20T08:26:35;121.93;;;62.83;;
21727;SDS011;11026;50.560;17.852;2022-11-20T08:29:10;120.57;;;61.20;;
21727;SDS011;11026;50.560;17.852;2022-11-20T08:31:38;115.72;;;58.58;;
21727;SDS011;11026;50.560;17.852;2022-11-20T08:34:05;112.03;;;56.60;;
21727;SDS011;11026;50.560;17.852;2022-11-20T08:36:35;115.40;;;56.83;;
21727;SDS011;11026;50.560;17.852;2022-11-20T08:39:12;107.05;;;53.08;;
21727;SDS011;11026;50.560;17.852;2022-11-20T08:41:40;99.85;;;50.42;;
21727;SDS011;11026;50.560;17.852;2022-11-20T08:44:10;92.95;;;51.20;;
21727;SDS011;11026;50.560;17.852;2022-11-20T08:46:38;98.60;;;51.95;;
21727;SDS011;11026;50.560;17.852;2022-11-20T08:49:14;95.20;;;51.40;;
21727;SDS011;11026;50.560;17.852;2022-11-20T08:51:42;89.07;;;51.05;;
21727;SDS011;11026;50.560;17.852;2022-11-20T08:54:09;89.70;;;49.47;;
21727;SDS011;11026;50.560;17.852;2022-11-20T08:56:36;81.57;;;47.90;;
21727;SDS011;11026;50.560;17.852;2022-11-20T08:59:04;80.35;;;46.65;;
21727;SDS011;11026;50.560;17.852;2022-11-20T09:01:52;76.95;;;44.85;;
21727;SDS011;11026;50.560;17.852;2022-11-20T09:04:20;77.68;;;45.78;;
21727;SDS011;11026;50.560;17.852;2022-11-20T09:06:47;79.47;;;45.85;;
21727;SDS011;11026;50.560;17.852;2022-11-20T09:09:17;75.25;;;44.50;;
21727;SDS011;11026;50.560;17.852;2022-11-20T09:11:45;70.57;;;41.67;;
21727;SDS011;11026;50.560;17.852;2022-11-20T09:14:13;75.30;;;43.83;;
21727;SDS011;11026;50.560;17.852;2022-11-20T09:16:44;66.55;;;39.50;;
21727;SDS011;11026;50.560;17.852;2022-11-20T09:19:12;66.95;;;40.95;;
21727;SDS011;11026;50.560;17.852;2022-11-20T09:21:59;60.83;;;37.30;;
21727;SDS011;11026;50.560;17.852;2022-11-20T09:24:27;56.20;;;35.30;;
21727;SDS011;11026;50.560;17.852;2022-11-20T09:26:55;57.47;;;35.58;;
21727;SDS011;11026;50.560;17.852;2022-11-20T09:29:22;63.45;;;39.03;;
21727;SDS011;11026;50.560;17.852;2022-11-20T09:31:51;66.47;;;39.78;;
21727;SDS011;11026;50.560;17.852;2022-11-20T09:34:19;65.10;;;39.85;;
21727;SDS011;11026;50.560;17.852;2022-11-20T09:36:46;62.05;;;38.42;;
21727;SDS011;11026;50.560;17.852;2022-11-20T09:39:14;60.38;;;38.22;;
21727;SDS011;11026;50.560;17.852;2022-11-20T09:49:58;51.70;;;33.40;;
21727;SDS011;11026;50.560;17.852;2022-11-20T09:52:33;51.97;;;32.53;;
21727;SDS011;11026;50.560;17.852;2022-11-20T09:55:12;51.90;;;31.58;;
21727;SDS011;11026;50.560;17.852;2022-11-20T09:57:44;46.30;;;30.92;;
21727;SDS011;11026;50.560;17.852;2022-11-20T10:00:14;47.17;;;30.23;;
21727;SDS011;11026;50.560;17.852;2022-11-20T10:05:47;46.33;;;30.23;;
21727;SDS011;11026;50.560;17.852;2022-11-20T10:10:58;48.40;;;29.67;;
21727;SDS011;11026;50.560;17.852;2022-11-20T10:13:55;51.65;;;30.17;;
21727;SDS011;11026;50.560;17.852;2022-11-20T10:25:14;53.38;;;32.75;;
21727;SDS011;11026;50.560;17.852;2022-11-20T10:27:51;42.42;;;26.75;;
21727;SDS011;11026;50.560;17.852;2022-11-20T10:30:43;47.83;;;30.02;;
21727;SDS011;11026;50.560;17.852;2022-11-20T10:33:23;50.53;;;29.00;;
21727;SDS011;11026;50.560;17.852;2022-11-20T10:36:17;56.03;;;34.90;;
21727;SDS011;11026;50.560;17.852;2022-11-20T10:38:58;57.70;;;35.97;;
21727;SDS011;11026;50.560;17.852;2022-11-20T10:41:42;59.33;;;36.20;;
21727;SDS011;11026;50.560;17.852;2022-11-20T10:44:19;60.90;;;36.65;;
21727;SDS011;11026;50.560;17.852;2022-11-20T10:47:17;63.55;;;36.65;;
21727;SDS011;11026;50.560;17.852;2022-11-20T10:49:45;59.17;;;36.70;;
21727;SDS011;11026;50.560;17.852;2022-11-20T10:52:30;58.67;;;36.05;;
21727;SDS011;11026;50.560;17.852;2022-11-20T11:00:46;50.20;;;30.67;;
21727;SDS011;11026;50.560;17.852;2022-11-20T11:03:27;47.08;;;29.85;;
21727;SDS011;11026;50.560;17.852;2022-11-20T11:06:08;43.33;;;28.85;;
21727;SDS011;11026;50.560;17.852;2022-11-20T11:08:44;45.08;;;30.30;;
21727;SDS011;11026;50.560;17.852;2022-11-20T11:11:21;43.38;;;29.17;;
21727;SDS011;11026;50.560;17.852;2022-11-20T11:13:52;45.95;;;28.92;;
21727;SDS011;11026;50.560;17.852;2022-11-20T11:16:20;43.28;;;28.52;;
21727;SDS011;11026;50.560;17.852;2022-11-20T11:18:50;43.33;;;29.30;;
21727;SDS011;11026;50.560;17.852;2022-11-20T11:21:24;42.75;;;27.60;;
21727;SDS011;11026;50.560;17.852;2022-11-20T11:24:01;43.50;;;29.02;;
21727;SDS011;11026;50.560;17.852;2022-11-20T11:27:14;45.83;;;29.05;;
21727;SDS011;11026;50.560;17.852;2022-11-20T11:29:47;39.70;;;26.63;;
21727;SDS011;11026;50.560;17.852;2022-11-20T11:32:19;42.42;;;26.38;;
21727;SDS011;11026;50.560;17.852;2022-11-20T11:35:01;42.85;;;27.10;;
21727;SDS011;11026;50.560;17.852;2022-11-20T11:37:34;48.13;;;28.45;;
21727;SDS011;11026;50.560;17.852;2022-11-20T11:40:03;45.42;;;27.67;;
21727;SDS011;11026;50.560;17.852;2022-11-20T11:43:01;46.88;;;29.02;;
21727;SDS011;11026;50.560;17.852;2022-11-20T11:45:32;48.80;;;31.20;;
21727;SDS011;11026;50.560;17.852;2022-11-20T11:48:00;49.35;;;30.77;;
21727;SDS011;11026;50.560;17.852;2022-11-20T11:50:30;51.47;;;33.33;;
21727;SDS011;11026;50.560;17.852;2022-11-20T11:53:14;55.92;;;33.90;;
21727;SDS011;11026;50.560;17.852;2022-11-20T11:55:50;60.40;;;35.08;;
21727;SDS011;11026;50.560;17.852;2022-11-20T12:01:20;56.83;;;36.75;;
21727;SDS011;11026;50.560;17.852;2022-11-20T12:03:53;61.67;;;38.47;;
21727;SDS011;11026;50.560;17.852;2022-11-20T12:06:30;69.15;;;40.58;;
21727;SDS011;11026;50.560;17.852;2022-11-20T12:09:07;60.92;;;38.63;;
21727;SDS011;11026;50.560;17.852;2022-11-20T12:14:30;59.67;;;37.97;;
21727;SDS011;11026;50.560;17.852;2022-11-20T12:17:03;62.63;;;37.50;;
21727;SDS011;11026;50.560;17.852;2022-11-20T12:19:31;56.00;;;35.17;;
21727;SDS011;11026;50.560;17.852;2022-11-20T12:27:43;51.47;;;32.85;;
21727;SDS011;11026;50.560;17.852;2022-11-20T12:30:30;53.42;;;32.22;;
21727;SDS011;11026;50.560;17.852;2022-11-20T12:36:08;45.35;;;27.38;;
21727;SDS011;11026;50.560;17.852;2022-11-20T12:41:38;43.55;;;26.83;;
21727;SDS011;11026;50.560;17.852;2022-11-20T12:44:36;41.22;;;27.52;;
21727;SDS011;11026;50.560;17.852;2022-11-20T12:59:08;47.83;;;27.02;;
21727;SDS011;11026;50.560;17.852;2022-11-20T13:01:45;45.72;;;26.63;;
21727;SDS011;11026;50.560;17.852;2022-11-20T13:07:14;45.28;;;28.20;;
21727;SDS011;11026;50.560;17.852;2022-11-20T13:09:46;46.42;;;28.20;;
21727;SDS011;11026;50.560;17.852;2022-11-20T13:20:29;46.28;;;28.25;;
21727;SDS011;11026;50.560;17.852;2022-11-20T13:23:02;47.05;;;29.10;;
21727;SDS011;11026;50.560;17.852;2022-11-20T13:25:32;48.13;;;29.48;;
21727;SDS011;11026;50.560;17.852;2022-11-20T13:30:53;47.22;;;29.20;;
21727;SDS011;11026;50.560;17.852;2022-11-20T13:33:37;49.75;;;29.90;;
21727;SDS011;11026;50.560;17.852;2022-11-20T13:36:21;51.38;;;29.17;;
21727;SDS011;11026;50.560;17.852;2022-11-20T13:38:54;47.05;;;26.83;;
21727;SDS011;11026;50.560;17.852;2022-11-20T13:41:28;45.25;;;26.05;;
21727;SDS011;11026;50.560;17.852;2022-11-20T13:46:59;43.72;;;24.92;;
21727;SDS011;11026;50.560;17.852;2022-11-20T13:49:32;37.20;;;21.70;;
21727;SDS011;11026;50.560;17.852;2022-11-20T13:55:19;31.80;;;19.67;;
21727;SDS011;11026;50.560;17.852;2022-11-20T14:03:57;30.95;;;18.42;;
21727;SDS011;11026;50.560;17.852;2022-11-20T14:06:42;35.15;;;19.30;;
21727;SDS011;11026;50.560;17.852;2022-11-20T14:09:24;34.92;;;20.45;;
21727;SDS011;11026;50.560;17.852;2022-11-20T14:11:52;36.10;;;19.70;;
21727;SDS011;11026;50.560;17.852;2022-11-20T14:14:27;34.13;;;18.92;;
21727;SDS011;11026;50.560;17.852;2022-11-20T14:20:06;32.92;;;19.30;;
21727;SDS011;11026;50.560;17.852;2022-11-20T14:22:52;35.63;;;19.88;;
21727;SDS011;11026;50.560;17.852;2022-11-20T14:27:56;35.55;;;19.67;;
21727;SDS011;11026;50.560;17.852;2022-11-20T14:30:26;35.10;;;20.73;;
21727;SDS011;11026;50.560;17.852;2022-11-20T14:32:57;38.30;;;20.08;;
21727;SDS011;11026;50.560;17.852;2022-11-20T14:35:30;32.55;;;19.33;;
21727;SDS011;11026;50.560;17.852;2022-11-20T14:40:43;35.10;;;20.13;;
21727;SDS011;11026;50.560;17.852;2022-11-20T14:45:59;37.17;;;19.95;;
21727;SDS011;11026;50.560;17.852;2022-11-20T14:48:37;35.60;;;19.38;;
21727;SDS011;11026;50.560;17.852;2022-11-20T14:51:11;37.35;;;19.95;;
21727;SDS011;11026;50.560;17.852;2022-11-20T14:53:50;37.95;;;20.55;;
21727;SDS011;11026;50.560;17.852;2022-11-20T14:56:22;39.60;;;21.45;;
21727;SDS011;11026;50.560;17.852;2022-11-20T14:58:58;32.67;;;19.90;;
21727;SDS011;11026;50.560;17.852;2022-11-20T15:01:30;35.05;;;21.08;;
21727;SDS011;11026;50.560;17.852;2022-11-20T15:04:09;36.33;;;20.48;;
21727;SDS011;11026;50.560;17.852;2022-11-20T15:06:48;34.72;;;21.33;;
21727;SDS011;11026;50.560;17.852;2022-11-20T15:09:19;38.65;;;22.40;;
21727;SDS011;11026;50.560;17.852;2022-11-20T15:11:54;38.35;;;21.20;;
21727;SDS011;11026;50.560;17.852;2022-11-20T15:14:27;58.97;;;32.67;;
21727;SDS011;11026;50.560;17.852;2022-11-20T15:16:57;49.38;;;28.92;;
21727;SDS011;11026;50.560;17.852;2022-11-20T15:19:27;45.78;;;25.75;;
21727;SDS011;11026;50.560;17.852;2022-11-20T15:21:55;43.28;;;22.92;;
21727;SDS011;11026;50.560;17.852;2022-11-20T15:24:25;35.78;;;20.88;;
21727;SDS011;11026;50.560;17.852;2022-11-20T15:26:54;43.92;;;24.98;;
21727;SDS011;11026;50.560;17.852;2022-11-20T15:29:21;38.78;;;21.83;;
21727;SDS011;11026;50.560;17.852;2022-11-20T15:31:51;36.72;;;19.40;;
21727;SDS011;11026;50.560;17.852;2022-11-20T15:34:19;31.85;;;17.75;;
21727;SDS011;11026;50.560;17.852;2022-11-20T15:36:47;35.08;;;18.67;;
21727;SDS011;11026;50.560;17.852;2022-11-20T15:39:16;33.50;;;19.02;;
21727;SDS011;11026;50.560;17.852;2022-11-20T15:41:46;33.05;;;18.95;;
21727;SDS011;11026;50.560;17.852;2022-11-20T15:44:20;37.70;;;20.73;;
21727;SDS011;11026;50.560;17.852;2022-11-20T15:46:50;84.43;;;44.85;;
21727;SDS011;11026;50.560;17.852;2022-11-20T15:49:17;32.17;;;18.27;;
21727;SDS011;11026;50.560;17.852;2022-11-20T15:51:51;31.23;;;18.00;;
21727;SDS011;11026;50.560;17.852;2022-11-20T15:54:25;32.45;;;17.20;;
21727;SDS011;11026;50.560;17.852;2022-11-20T15:56:54;31.17;;;18.02;;
21727;SDS011;11026;50.560;17.852;2022-11-20T15:59:22;38.58;;;20.40;;
21727;SDS011;11026;50.560;17.852;2022-11-20T16:01:49;37.67;;;20.05;;
21727;SDS011;11026;50.560;17.852;2022-11-20T16:04:18;41.53;;;22.15;;
21727;SDS011;11026;50.560;17.852;2022-11-20T16:06:47;43.67;;;24.35;;
21727;SDS011;11026;50.560;17.852;2022-11-20T16:09:15;36.85;;;21.20;;
21727;SDS011;11026;50.560;17.852;2022-11-20T16:11:42;43.15;;;21.70;;
21727;SDS011;11026;50.560;17.852;2022-11-20T16:14:10;35.38;;;18.42;;